Time;durP1;ratioP1;P1;durP2;ratioP2;P2;SDS_P1;SDS_P2;PMS_P1;PMS_P2;Temp;Humidity;BMP_temperature;BMP_pressure;BME280_temperature;BME280_humidity;BME280_pressure;Samples;Min_cycle;Max_cycle;Signal;HPM_P1;HPM_P2
2022/09/21 00:01:29;;;;;;;7.57;3.08;;;7.90;99.90;;;;;;4976106;28;20073;-63
2022/09/21 00:03:58;;;;;;;5.38;2.95;;;7.90;99.90;;;;;;4975928;28;20055;-62
2022/09/21 00:06:26;;;;;;;7.40;3.33;;;7.90;99.90;;;;;;4975512;28;20567;-62
2022/09/21 00:08:55;;;;;;;6.65;3.17;;;7.80;99.90;;;;;;4936446;29;20082;-63
2022/09/21 00:11:26;;;;;;;7.97;2.80;;;7.90;99.90;;;;;;4937186;29;20388;-62
2022/09/21 00:13:54;;;;;;;16.13;2.75;;;7.80;99.90;;;;;;4937071;29;20047;-62
2022/09/21 00:16:22;;;;;;;5.38;2.95;;;7.80;99.90;;;;;;4936288;29;20059;-62
2022/09/21 00:18:50;;;;;;;5.82;2.90;;;7.80;99.90;;;;;;4936836;29;20052;-62
2022/09/21 00:21:18;;;;;;;4.13;2.75;;;7.80;99.90;;;;;;4937259;29;20052;-62
2022/09/21 00:23:45;;;;;;;4.28;2.90;;;7.80;99.90;;;;;;4937717;29;20058;-62
2022/09/21 00:26:16;;;;;;;5.78;2.72;;;7.70;99.90;;;;;;4936470;29;20062;-63
2022/09/21 00:28:43;;;;;;;7.72;3.03;;;7.60;99.90;;;;;;4937446;29;20051;-62
2022/09/21 00:31:12;;;;;;;5.65;2.97;;;7.60;99.90;;;;;;4937016;29;20062;-62
2022/09/21 00:33:40;;;;;;;4.43;3.13;;;7.60;99.90;;;;;;4934418;29;20052;-63
2022/09/21 00:36:09;;;;;;;5.20;2.92;;;7.60;99.90;;;;;;4935523;29;20059;-62
2022/09/21 00:38:37;;;;;;;6.80;3.75;;;7.60;99.90;;;;;;4937005;29;20138;-63
2022/09/21 00:41:05;;;;;;;5.03;3.70;;;7.50;99.90;;;;;;4935402;29;20067;-62
2022/09/21 00:43:35;;;;;;;6.45;3.58;;;7.50;99.90;;;;;;4937004;29;20064;-63
2022/09/21 00:46:05;;;;;;;7.30;4.03;;;7.40;99.90;;;;;;4936663;29;20048;-62
2022/09/21 00:48:33;;;;;;;7.05;4.07;;;7.40;99.90;;;;;;4936925;29;20047;-63
2022/09/21 00:51:05;;;;;;;5.05;4.22;;;7.40;99.90;;;;;;4967731;28;20059;-62
2022/09/21 00:53:32;;;;;;;7.55;4.30;;;7.30;99.90;;;;;;4936760;29;20063;-62
2022/09/21 00:56:01;;;;;;;6.30;4.05;;;7.30;99.90;;;;;;4936301;29;20415;-62
2022/09/21 00:58:37;;;;;;;5.20;4.28;;;7.30;99.90;;;;;;4936779;29;20087;-63
2022/09/21 01:01:04;;;;;;;11.00;5.10;;;7.30;99.90;;;;;;4935996;29;20059;-62
2022/09/21 01:03:31;;;;;;;7.22;4.60;;;7.30;99.90;;;;;;4936890;29;20051;-62
2022/09/21 01:05:58;;;;;;;9.20;4.63;;;7.30;99.90;;;;;;4936816;29;20479;-63
2022/09/21 01:08:27;;;;;;;8.57;5.07;;;7.20;99.90;;;;;;4966903;28;20069;-61
2022/09/21 01:11:33;;;;;;;6.97;4.25;;;7.30;99.90;;;;;;4957749;28;20062;-62
2022/09/21 01:14:17;;;;;;;9.75;4.70;;;7.30;99.90;;;;;;4975130;28;20055;-62
2022/09/21 01:16:50;;;;;;;8.75;5.20;;;7.20;99.90;;;;;;4974424;28;20387;-63
2022/09/21 01:19:37;;;;;;;6.68;4.47;;;7.30;99.90;;;;;;4974841;28;20054;-63
2022/09/21 01:22:11;;;;;;;10.68;5.13;;;7.20;99.90;;;;;;4973987;28;20080;-62
2022/09/21 01:25:01;;;;;;;7.43;4.65;;;7.20;99.90;;;;;;4957825;28;20051;-63
2022/09/21 01:27:49;;;;;;;5.68;4.68;;;7.20;99.90;;;;;;4974895;28;20062;-62
2022/09/21 01:30:20;;;;;;;9.25;4.82;;;7.20;99.90;;;;;;4974086;28;20502;-62
2022/09/21 01:32:52;;;;;;;8.10;5.07;;;7.20;99.90;;;;;;4974834;28;20397;-63
2022/09/21 01:35:24;;;;;;;9.30;4.75;;;7.20;99.90;;;;;;4974511;28;20133;-63
2022/09/21 01:37:57;;;;;;;11.25;5.35;;;7.20;99.90;;;;;;4974452;28;20062;-63
2022/09/21 01:40:28;;;;;;;8.63;4.82;;;7.20;99.90;;;;;;4957078;28;20134;-63
2022/09/21 01:42:57;;;;;;;7.32;4.60;;;7.20;99.90;;;;;;4974533;28;20050;-63
2022/09/21 01:45:31;;;;;;;6.35;4.20;;;7.10;99.90;;;;;;4974004;28;20422;-62
2022/09/21 01:48:02;;;;;;;9.52;4.95;;;7.10;99.90;;;;;;4974620;28;20051;-63
2022/09/21 01:50:34;;;;;;;6.20;4.28;;;7.10;99.90;;;;;;4973429;28;20050;-62
2022/09/21 01:53:05;;;;;;;7.43;4.43;;;7.10;99.90;;;;;;4957154;28;20398;-62
2022/09/21 01:55:41;;;;;;;6.70;4.03;;;7.10;99.90;;;;;;4957231;28;20059;-62
2022/09/21 01:58:15;;;;;;;8.73;4.78;;;7.10;99.90;;;;;;4956716;28;20450;-63
2022/09/21 02:00:46;;;;;;;7.68;4.60;;;7.10;99.90;;;;;;4956888;28;20506;-62
2022/09/21 02:03:21;;;;;;;10.55;4.88;;;7.10;99.90;;;;;;4973844;28;20047;-62
2022/09/21 02:05:48;;;;;;;12.18;5.07;;;7.10;99.90;;;;;;4956418;28;20061;-62
2022/09/21 02:08:15;;;;;;;8.40;4.20;;;7.50;99.90;;;;;;4974182;28;20455;-62
2022/09/21 02:10:47;;;;;;;8.77;4.45;;;7.00;99.90;;;;;;4973607;28;20046;-62
2022/09/21 02:13:15;;;;;;;8.38;4.10;;;7.00;99.90;;;;;;4956206;28;20046;-62
2022/09/21 02:15:58;;;;;;;7.10;4.28;;;7.00;99.90;;;;;;4973993;28;20098;-62
2022/09/21 02:18:39;;;;;;;6.72;4.28;;;7.00;99.90;;;;;;4973414;28;20097;-62
2022/09/21 02:21:11;;;;;;;6.60;4.10;;;6.90;99.90;;;;;;4973955;28;20065;-63
2022/09/21 02:23:45;;;;;;;7.03;4.75;;;7.00;99.90;;;;;;4973942;28;20078;-62
2022/09/21 02:26:18;;;;;;;6.90;3.95;;;6.90;99.90;;;;;;4973499;28;20063;-62
2022/09/21 02:28:51;;;;;;;4.88;3.90;;;6.90;99.90;;;;;;4973968;28;20101;-62
2022/09/21 02:31:27;;;;;;;7.63;3.92;;;6.90;99.90;;;;;;4956126;28;20559;-62
2022/09/21 02:33:59;;;;;;;5.00;4.00;;;6.80;99.90;;;;;;4973423;28;20047;-62
2022/09/21 02:36:31;;;;;;;7.57;4.03;;;6.80;99.90;;;;;;4956831;28;20063;-62
2022/09/21 02:39:06;;;;;;;5.72;3.97;;;6.80;99.90;;;;;;4973630;28;20050;-63
2022/09/21 02:41:40;;;;;;;5.85;3.80;;;6.80;99.90;;;;;;4956092;28;20062;-62
2022/09/21 02:44:12;;;;;;;5.45;3.92;;;6.70;99.90;;;;;;4974014;28;20047;-62
2022/09/21 02:46:44;;;;;;;4.28;3.33;;;6.70;99.90;;;;;;4972943;28;20059;-62
2022/09/21 02:49:17;;;;;;;4.43;3.25;;;6.70;99.90;;;;;;4973930;28;20102;-62
2022/09/21 02:51:47;;;;;;;6.07;3.75;;;6.70;99.90;;;;;;4973582;28;20054;-62
2022/09/21 02:54:22;;;;;;;5.33;3.30;;;6.70;99.90;;;;;;4955888;28;20051;-62
2022/09/21 02:56:51;;;;;;;6.30;3.38;;;6.70;99.90;;;;;;4973713;28;20051;-62
2022/09/21 02:59:20;;;;;;;5.65;3.65;;;6.70;99.90;;;;;;4956083;28;20063;-62
2022/09/21 03:01:49;;;;;;;5.63;3.95;;;6.70;99.90;;;;;;4955821;28;20055;-61
2022/09/21 03:04:17;;;;;;;6.55;3.47;;;6.60;99.90;;;;;;4973670;28;20054;-62
2022/09/21 03:06:44;;;;;;;6.38;4.43;;;6.60;99.90;;;;;;4956038;28;20490;-63
2022/09/21 03:09:10;;;;;;;7.75;3.75;;;6.60;99.90;;;;;;4956066;28;20094;-61
2022/09/21 03:11:37;;;;;;;6.53;3.58;;;6.60;99.90;;;;;;4973298;28;20061;-62
2022/09/21 03:14:07;;;;;;;5.35;3.80;;;6.50;99.90;;;;;;4955216;28;20050;-61
2022/09/21 03:16:34;;;;;;;9.25;3.95;;;6.50;99.90;;;;;;4972941;28;20078;-62
2022/09/21 03:19:02;;;;;;;4.68;3.25;;;6.50;99.90;;;;;;4956524;28;20059;-62
2022/09/21 03:21:29;;;;;;;7.55;3.88;;;6.50;99.90;;;;;;4955755;28;20082;-62
2022/09/21 03:23:56;;;;;;;5.80;3.55;;;6.50;99.90;;;;;;4956322;28;20053;-62
2022/09/21 03:26:23;;;;;;;5.53;3.40;;;6.50;99.90;;;;;;4973389;28;20054;-62
2022/09/21 03:28:51;;;;;;;4.22;3.25;;;6.50;99.90;;;;;;4972682;28;20051;-62
2022/09/21 03:31:18;;;;;;;7.05;3.30;;;6.50;99.90;;;;;;4956579;28;20055;-62
2022/09/21 03:33:44;;;;;;;6.10;3.60;;;6.50;99.90;;;;;;4976986;28;20399;-62
2022/09/21 03:36:13;;;;;;;4.35;3.20;;;6.40;99.90;;;;;;4958598;28;20051;-62
2022/09/21 03:38:41;;;;;;;6.40;3.10;;;6.40;99.90;;;;;;4959841;28;20538;-62
2022/09/21 03:41:08;;;;;;;5.80;3.45;;;6.30;99.90;;;;;;4976295;28;20050;-62
2022/09/21 03:43:35;;;;;;;5.07;3.78;;;6.30;99.90;;;;;;4958952;28;20079;-62
2022/09/21 03:46:02;;;;;;;7.68;3.63;;;6.30;99.90;;;;;;4959587;28;20063;-63
2022/09/21 03:48:28;;;;;;;7.65;3.95;;;6.30;99.90;;;;;;4976293;28;20055;-65
2022/09/21 03:50:55;;;;;;;7.78;4.15;;;6.20;99.90;;;;;;4975894;28;20102;-62
2022/09/21 03:53:24;;;;;;;5.35;3.20;;;6.30;99.90;;;;;;4976291;28;20054;-62
2022/09/21 03:55:50;;;;;;;5.93;3.53;;;6.30;99.90;;;;;;4976481;28;20059;-63
2022/09/21 03:58:17;;;;;;;6.43;3.67;;;6.30;99.90;;;;;;4975807;28;20051;-63
2022/09/21 04:00:45;;;;;;;4.97;3.40;;;6.30;99.90;;;;;;4976339;28;20049;-62
2022/09/21 04:03:12;;;;;;;5.78;3.63;;;6.30;99.90;;;;;;4975766;28;20078;-63
2022/09/21 04:05:39;;;;;;;5.97;2.90;;;6.20;99.90;;;;;;4975818;28;20042;-62
2022/09/21 04:08:06;;;;;;;5.55;3.10;;;6.10;99.90;;;;;;4975901;28;20063;-63
2022/09/21 04:10:34;;;;;;;5.00;3.00;;;6.10;99.90;;;;;;4975821;28;20134;-62
2022/09/21 04:13:02;;;;;;;7.65;2.85;;;6.10;99.90;;;;;;4975582;28;20196;-62
2022/09/21 04:15:30;;;;;;;6.20;3.47;;;6.10;99.90;;;;;;4976359;28;20106;-63
2022/09/21 04:17:58;;;;;;;4.70;3.47;;;6.10;99.90;;;;;;4990399;28;20422;-62
2022/09/21 04:20:24;;;;;;;7.15;3.30;;;6.10;99.90;;;;;;4975996;28;20072;-63
2022/09/21 04:22:51;;;;;;;4.97;3.40;;;6.10;99.90;;;;;;4976081;28;20054;-62
2022/09/21 04:25:19;;;;;;;6.38;3.30;;;6.10;99.90;;;;;;4958051;28;20055;-62
2022/09/21 04:27:47;;;;;;;6.07;3.08;;;6.10;99.90;;;;;;4958523;28;20101;-62
2022/09/21 04:30:15;;;;;;;7.63;3.67;;;6.10;99.90;;;;;;4975500;28;20098;-62
2022/09/21 04:32:43;;;;;;;5.03;2.97;;;6.10;99.90;;;;;;4974369;28;20055;-62
2022/09/21 04:35:10;;;;;;;7.05;3.42;;;6.10;99.90;;;;;;4974320;28;20490;-62
2022/09/21 04:37:37;;;;;;;5.60;3.50;;;6.10;99.90;;;;;;4957254;28;20058;-62
2022/09/21 04:40:05;;;;;;;11.80;3.58;;;6.10;99.90;;;;;;4974856;28;20055;-63
2022/09/21 04:42:32;;;;;;;4.80;3.55;;;6.10;99.90;;;;;;4974873;28;20055;-62
2022/09/21 04:45:01;;;;;;;6.82;3.30;;;6.10;99.90;;;;;;4974750;28;20118;-62
2022/09/21 04:47:29;;;;;;;5.75;3.40;;;6.10;99.90;;;;;;4974991;28;20051;-62
2022/09/21 04:49:56;;;;;;;11.25;3.05;;;6.10;99.90;;;;;;4975295;28;20054;-62
2022/09/21 04:52:23;;;;;;;5.60;3.13;;;6.00;99.90;;;;;;4975084;28;20946;-61
2022/09/21 04:54:50;;;;;;;6.45;3.45;;;6.00;99.90;;;;;;4974849;28;20047;-61
2022/09/21 04:57:17;;;;;;;6.60;3.30;;;6.00;99.90;;;;;;4975216;28;20101;-62
2022/09/21 04:59:44;;;;;;;5.88;3.35;;;5.90;99.90;;;;;;4957634;28;20058;-62
2022/09/21 05:02:12;;;;;;;7.22;3.58;;;6.00;99.90;;;;;;4974437;28;20051;-62
2022/09/21 05:04:39;;;;;;;5.28;3.15;;;6.00;99.90;;;;;;4957644;28;20510;-63
2022/09/21 05:07:06;;;;;;;7.38;2.85;;;6.00;99.90;;;;;;4957069;28;20050;-63
2022/09/21 05:12:17;;;;;;;6.85;3.80;;;5.90;99.90;;;;;;4974637;28;20050;-62
2022/09/21 05:14:44;;;;;;;3.80;2.90;;;6.00;99.90;;;;;;4973745;28;20498;-62
2022/09/21 05:17:13;;;;;;;5.43;3.25;;;6.00;99.90;;;;;;4957642;28;20055;-61
2022/09/21 05:19:40;;;;;;;5.50;3.38;;;5.90;99.90;;;;;;4957276;28;20062;-62
2022/09/21 05:22:07;;;;;;;6.57;3.30;;;5.90;99.90;;;;;;4957152;28;20054;-65
2022/09/21 05:24:33;;;;;;;7.88;3.85;;;6.00;99.90;;;;;;4974840;28;20078;-65
2022/09/21 05:27:00;;;;;;;6.53;3.83;;;6.00;99.90;;;;;;4957593;28;20058;-65
2022/09/21 05:29:28;;;;;;;4.82;3.17;;;6.00;99.90;;;;;;4956764;28;20133;-66
2022/09/21 05:32:01;;;;;;;6.03;3.50;;;6.10;99.90;;;;;;4974982;28;20054;-64
2022/09/21 05:34:49;;;;;;;4.13;2.88;;;6.10;99.90;;;;;;4957018;28;20046;-63
2022/09/21 05:37:48;;;;;;;5.95;3.47;;;6.10;99.90;;;;;;4956762;28;20098;-62
2022/09/21 05:40:16;;;;;;;5.13;2.67;;;6.10;99.90;;;;;;4947433;28;20398;-62
2022/09/21 05:42:44;;;;;;;5.38;2.42;;;6.10;99.90;;;;;;4973849;28;20054;-61
2022/09/21 05:45:15;;;;;;;6.10;3.47;;;6.10;99.90;;;;;;4957406;28;20378;-61
2022/09/21 05:47:48;;;;;;;;;;;6.20;99.90;;;;;;4974575;28;20058;-62
2022/09/21 05:50:29;;;;;;;4.57;3.10;;;6.20;99.90;;;;;;4956708;28;20399;-62
2022/09/21 05:53:08;;;;;;;5.45;3.33;;;6.20;99.90;;;;;;4974289;28;20050;-62
2022/09/21 05:55:44;;;;;;;7.40;3.20;;;6.20;99.90;;;;;;4956422;28;20111;-62
2022/09/21 05:58:22;;;;;;;6.35;3.15;;;6.30;99.90;;;;;;4973718;28;20050;-61
2022/09/21 06:01:02;;;;;;;3.63;2.70;;;6.40;99.90;;;;;;4973813;28;20054;-62
2022/09/21 06:03:31;;;;;;;4.88;3.10;;;6.40;99.90;;;;;;4973076;28;20141;-63
2022/09/21 06:05:59;;;;;;;9.10;3.67;;;6.40;99.90;;;;;;4974280;28;20089;-61
2022/09/21 06:08:26;;;;;;;9.20;3.65;;;6.50;99.90;;;;;;4973786;28;20058;-62
2022/09/21 06:10:54;;;;;;;5.72;3.50;;;6.60;99.90;;;;;;4973192;28;20402;-62
2022/09/21 06:13:21;;;;;;;6.55;3.40;;;6.70;99.90;;;;;;4973812;28;20561;-63
2022/09/21 06:15:48;;;;;;;6.32;3.55;;;6.80;99.90;;;;;;4965769;28;20498;-62
2022/09/21 06:18:15;;;;;;;6.88;3.83;;;6.90;99.90;;;;;;4955988;28;20047;-62
2022/09/21 06:20:42;;;;;;;5.95;4.28;;;7.00;99.90;;;;;;4956453;28;20047;-63
2022/09/21 06:23:11;;;;;;;5.35;3.85;;;7.10;99.90;;;;;;4964208;28;20101;-63
2022/09/21 06:25:38;;;;;;;12.52;4.63;;;7.20;99.90;;;;;;4967268;28;20059;-62
2022/09/21 06:28:08;;;;;;;7.05;4.18;;;7.30;99.90;;;;;;4967152;28;20110;-62
2022/09/21 06:30:36;;;;;;;10.35;4.35;;;7.40;99.90;;;;;;4950019;28;20527;-63
2022/09/21 06:33:05;;;;;;;7.95;3.88;;;7.60;99.90;;;;;;4966201;28;20047;-62
2022/09/21 06:35:33;;;;;;;5.78;4.15;;;7.80;99.90;;;;;;4968938;28;20101;-63
2022/09/21 06:38:01;;;;;;;7.32;4.82;;;8.00;99.90;;;;;;4963268;28;20450;-62
2022/09/21 06:40:30;;;;;;;8.88;5.35;;;8.10;99.90;;;;;;4964575;28;20110;-62
2022/09/21 06:42:58;;;;;;;8.75;5.45;;;8.20;99.90;;;;;;4965015;28;20078;-62
2022/09/21 06:45:25;;;;;;;11.15;5.13;;;8.30;99.90;;;;;;4952916;28;20086;-62
2022/09/21 06:47:53;;;;;;;9.60;5.50;;;8.40;99.90;;;;;;4964568;28;20468;-62
2022/09/21 06:50:20;;;;;;;9.27;5.22;;;8.50;99.90;;;;;;4948444;28;20050;-62
2022/09/21 06:52:47;;;;;;;8.63;5.07;;;8.70;99.90;;;;;;4967902;28;20051;-63
2022/09/21 06:55:14;;;;;;;11.52;5.55;;;9.00;99.90;;;;;;4969141;28;20042;-63
2022/09/21 06:57:43;;;;;;;14.50;5.80;;;9.00;99.90;;;;;;4965321;28;20138;-62
2022/09/21 07:00:13;;;;;;;8.32;4.63;;;9.20;99.90;;;;;;4952154;28;20070;-61
2022/09/21 07:02:44;;;;;;;11.80;5.65;;;9.60;99.90;;;;;;4966354;28;20055;-63
2022/09/21 07:05:10;;;;;;;;;;;10.70;99.90;;;;;;4964297;28;20090;-62
2022/09/21 07:07:39;;;;;;;11.38;5.05;;;12.30;99.90;;;;;;4950508;28;19987;-62
2022/09/21 07:10:07;;;;;;;13.90;5.07;;;14.00;99.90;;;;;;4970147;28;20499;-62
2022/09/21 07:12:34;;;;;;;12.98;6.68;;;15.40;99.90;;;;;;4953253;28;20062;-62
2022/09/21 07:15:03;;;;;;;8.13;3.60;;;16.70;99.90;;;;;;4954602;28;20390;-62
2022/09/21 07:17:32;;;;;;;16.17;3.97;;;17.50;99.90;;;;;;4972094;28;20399;-63
2022/09/21 07:20:00;;;;;;;7.07;2.70;;;18.30;99.90;;;;;;4968519;28;20047;-62
2022/09/21 07:22:28;;;;;;;8.82;2.92;;;19.30;99.90;;;;;;4968329;28;20542;-63
2022/09/21 07:24:56;;;;;;;11.05;2.60;;;20.20;99.90;;;;;;4952859;28;20484;-62
2022/09/21 07:27:23;;;;;;;7.50;2.60;;;20.80;99.90;;;;;;4967708;28;20446;-63
2022/09/21 07:29:50;;;;;;;9.13;2.40;;;21.40;99.90;;;;;;4973300;28;20541;-62
2022/09/21 07:32:19;;;;;;;7.65;2.63;;;22.00;99.90;;;;;;4967493;28;20050;-63
2022/09/21 07:34:47;;;;;;;6.43;2.25;;;22.50;99.90;;;;;;4948678;28;20094;-63
2022/09/21 07:37:14;;;;;;;6.75;2.13;;;22.70;99.90;;;;;;4947998;28;20483;-62
2022/09/21 07:39:41;;;;;;;7.13;2.25;;;23.00;99.50;;;;;;4968160;28;20054;-62
2022/09/21 07:42:08;;;;;;;8.60;2.47;;;23.00;98.20;;;;;;4951493;28;20067;-62
2022/09/21 07:44:35;;;;;;;4.28;1.98;;;23.10;96.70;;;;;;4955813;28;20449;-63
2022/09/21 07:47:02;;;;;;;7.25;2.17;;;23.70;96.10;;;;;;4951198;28;20447;-62
2022/09/21 07:49:30;;;;;;;6.75;2.42;;;24.20;94.90;;;;;;4968688;28;20055;-62
2022/09/21 07:51:57;;;;;;;7.53;2.13;;;24.50;93.80;;;;;;4950142;28;20435;-62
2022/09/21 07:54:24;;;;;;;5.60;2.10;;;24.70;93.10;;;;;;4967504;28;20046;-63
2022/09/21 07:59:32;;;;;;;8.65;1.88;;;25.10;91.70;;;;;;4967178;28;20065;-63
2022/09/21 08:01:59;;;;;;;8.05;2.40;;;24.70;90.90;;;;;;4956566;28;20406;-62
2022/09/21 08:04:26;;;;;;;7.70;2.00;;;24.50;91.00;;;;;;4969909;28;20051;-63
2022/09/21 08:06:54;;;;;;;3.75;1.50;;;25.20;90.80;;;;;;4968736;28;20059;-63
2022/09/21 08:09:21;;;;;;;4.50;1.85;;;25.40;87.10;;;;;;4969804;28;20473;-63
2022/09/21 08:11:50;;;;;;;6.25;1.60;;;25.60;88.50;;;;;;4972854;28;20046;-62
2022/09/21 08:14:19;;;;;;;4.30;1.60;;;25.90;87.70;;;;;;4968102;28;20491;-62
2022/09/21 08:16:46;;;;;;;5.15;1.60;;;26.00;87.20;;;;;;4969336;28;20135;-63
2022/09/21 08:19:16;;;;;;;3.50;1.52;;;26.30;86.50;;;;;;4953091;28;20555;-63
2022/09/21 08:21:43;;;;;;;10.23;1.90;;;26.80;85.00;;;;;;4953326;28;20058;-62
2022/09/21 08:24:11;;;;;;;6.32;2.05;;;26.40;83.40;;;;;;4966915;28;20050;-63
2022/09/21 08:26:38;;;;;;;3.83;1.70;;;27.20;82.50;;;;;;4948452;28;20050;-63
2022/09/21 08:29:05;;;;;;;6.18;1.52;;;27.10;81.10;;;;;;4951355;28;20055;-63
2022/09/21 08:31:32;;;;;;;6.13;1.65;;;26.60;80.00;;;;;;4972320;28;20050;-63
2022/09/21 08:34:00;;;;;;;7.00;1.55;;;26.00;79.80;;;;;;4952778;28;20407;-62
2022/09/21 08:36:27;;;;;;;10.27;1.70;;;26.20;80.20;;;;;;4965453;28;20047;-63
2022/09/21 08:38:55;;;;;;;4.85;1.55;;;26.20;79.90;;;;;;4965043;28;20051;-63
2022/09/21 08:41:31;;;;;;;4.68;1.45;;;26.60;79.60;;;;;;4977162;28;20479;-64
2022/09/21 08:44:03;;;;;;;6.40;1.92;;;27.00;78.70;;;;;;4966934;28;20109;-63
2022/09/21 08:46:32;;;;;;;7.40;2.08;;;27.00;78.50;;;;;;4968166;28;20122;-63
2022/09/21 08:49:05;;;;;;;5.07;1.42;;;27.10;78.50;;;;;;4948901;28;20098;-63
2022/09/21 08:51:36;;;;;;;7.35;1.10;;;27.00;76.40;;;;;;4946017;28;20059;-63
2022/09/21 08:54:12;;;;;;;3.05;1.13;;;27.30;74.30;;;;;;4968476;28;20058;-63
2022/09/21 08:56:40;;;;;;;4.05;1.38;;;27.60;72.50;;;;;;4951645;28;20491;-63
2022/09/21 08:59:11;;;;;;;4.45;1.60;;;27.10;72.60;;;;;;4950453;28;20098;-63
2022/09/21 09:01:52;;;;;;;4.88;1.35;;;27.50;73.30;;;;;;4955574;28;20087;-62
2022/09/21 09:04:34;;;;;;;8.05;1.40;;;28.20;72.20;;;;;;4950857;28;20063;-63
2022/09/21 09:07:20;;;;;;;4.85;1.20;;;28.80;69.10;;;;;;4968083;28;20058;-62
2022/09/21 09:10:03;;;;;;;7.10;1.40;;;28.40;68.60;;;;;;4951883;28;20058;-62
2022/09/21 09:12:48;;;;;;;3.35;0.90;;;28.60;66.40;;;;;;4969829;28;20062;-62
2022/09/21 09:15:30;;;;;;;3.20;0.98;;;29.10;66.80;;;;;;4969484;28;20094;-63
2022/09/21 09:18:04;;;;;;;4.50;1.10;;;28.70;66.30;;;;;;4950528;28;20059;-62
2022/09/21 09:20:37;;;;;;;3.63;0.90;;;29.30;67.60;;;;;;4969226;28;20059;-62
2022/09/21 09:23:11;;;;;;;2.70;1.05;;;29.20;66.10;;;;;;4968691;28;20443;-62
2022/09/21 09:25:40;;;;;;;3.20;0.98;;;28.90;66.10;;;;;;4951337;28;20101;-62
2022/09/21 09:28:19;;;;;;;4.03;1.30;;;28.40;66.70;;;;;;4973070;28;20054;-63
2022/09/21 09:30:47;;;;;;;;;;;28.50;65.70;;;;;;4968285;28;20042;-62
2022/09/21 09:33:20;;;;;;;4.78;1.17;;;28.50;63.50;;;;;;4968125;28;19926;-61
2022/09/21 09:35:50;;;;;;;5.80;0.90;;;29.10;63.90;;;;;;4967228;28;20082;-62
2022/09/21 09:38:25;;;;;;;5.20;1.20;;;29.30;64.50;;;;;;4950066;28;20046;-62
2022/09/21 09:41:05;;;;;;;3.97;0.80;;;29.60;62.80;;;;;;4971390;28;20122;-62
2022/09/21 09:43:47;;;;;;;5.13;0.90;;;29.40;62.00;;;;;;4965583;28;20518;-62
2022/09/21 09:46:22;;;;;;;4.70;1.00;;;29.30;61.30;;;;;;4949970;28;20050;-63
2022/09/21 09:49:03;;;;;;;4.50;1.00;;;29.40;62.30;;;;;;4965017;28;20051;-62
2022/09/21 09:51:39;;;;;;;5.47;0.98;;;29.60;61.50;;;;;;4947569;28;20066;-63
2022/09/21 09:54:14;;;;;;;3.05;0.90;;;29.90;62.10;;;;;;4963829;28;20047;-62
2022/09/21 09:56:41;;;;;;;4.03;0.90;;;30.20;60.60;;;;;;4963841;28;20051;-63
2022/09/21 09:59:16;;;;;;;3.38;0.95;;;30.70;61.00;;;;;;4968675;28;20059;-62
2022/09/21 10:01:46;;;;;;;4.55;1.00;;;30.10;58.30;;;;;;4966718;28;20062;-63
2022/09/21 10:04:14;;;;;;;3.80;1.00;;;30.50;59.40;;;;;;4944386;28;20547;-63
2022/09/21 10:06:42;;;;;;;2.70;0.77;;;30.70;59.70;;;;;;4965179;28;20042;-64
2022/09/21 10:09:27;;;;;;;3.08;0.88;;;31.30;58.70;;;;;;4943952;28;20491;-62
2022/09/21 10:11:58;;;;;;;2.75;1.00;;;31.50;57.70;;;;;;4963784;28;20054;-62
2022/09/21 10:14:30;;;;;;;3.88;1.00;;;31.10;58.40;;;;;;4965556;28;20063;-63
2022/09/21 10:17:05;;;;;;;3.60;0.80;;;30.90;58.60;;;;;;4949888;28;20064;-62
2022/09/21 10:19:32;;;;;;;7.43;1.35;;;30.80;58.30;;;;;;4965537;28;20526;-62
2022/09/21 10:22:00;;;;;;;4.80;1.20;;;31.00;58.30;;;;;;4947608;28;20254;-63
2022/09/21 10:24:32;;;;;;;2.70;0.90;;;31.00;59.10;;;;;;4948707;28;20066;-62
2022/09/21 10:27:06;;;;;;;4.70;1.08;;;31.00;58.40;;;;;;4965091;28;20404;-62
2022/09/21 10:29:40;;;;;;;2.72;1.00;;;31.20;56.80;;;;;;4953989;28;20081;-62
2022/09/21 10:32:23;;;;;;;4.28;1.20;;;31.30;57.10;;;;;;4961790;28;20051;-63
2022/09/21 10:35:14;;;;;;;2.88;0.98;;;31.60;58.10;;;;;;4965461;28;20051;-62
2022/09/21 10:37:42;;;;;;;3.60;1.30;;;31.60;56.20;;;;;;4963814;28;20403;-62
2022/09/21 10:40:24;;;;;;;3.25;1.00;;;31.50;57.70;;;;;;4948277;28;20066;-63
2022/09/21 10:42:54;;;;;;;5.50;1.55;;;31.50;56.80;;;;;;4969329;28;20506;-63
2022/09/21 10:45:25;;;;;;;4.05;0.90;;;31.50;56.90;;;;;;4970806;28;20066;-61
2022/09/21 10:47:55;;;;;;;3.50;0.90;;;31.40;56.10;;;;;;4948157;28;20107;-62
2022/09/21 10:50:23;;;;;;;;;;;31.70;56.90;;;;;;4971157;28;20055;-62
2022/09/21 10:52:51;;;;;;;4.07;1.17;;;30.90;55.70;;;;;;4969705;28;19933;-63
2022/09/21 10:55:21;;;;;;;2.83;0.90;;;31.20;56.50;;;;;;4952308;28;20487;-63
2022/09/21 10:57:50;;;;;;;5.90;1.10;;;31.30;55.60;;;;;;4971392;28;20409;-62
2022/09/21 11:00:37;;;;;;;3.33;0.90;;;31.10;55.60;;;;;;4922758;28;20047;-63
2022/09/21 11:03:31;;;;;;;3.80;0.80;;;31.10;54.80;;;;;;4969084;28;20086;-61
2022/09/21 11:06:03;;;;;;;4.55;0.93;;;31.30;54.60;;;;;;4956118;28;20055;-62
2022/09/21 11:08:35;;;;;;;3.50;0.80;;;31.70;55.70;;;;;;4949396;28;20137;-63
2022/09/21 11:11:21;;;;;;;4.65;0.90;;;31.70;54.50;;;;;;4967004;28;20043;-62
2022/09/21 11:13:55;;;;;;;3.47;0.95;;;31.70;55.00;;;;;;4963150;28;20506;-62
2022/09/21 11:16:31;;;;;;;2.47;0.95;;;31.70;54.40;;;;;;4973233;28;20047;-62
2022/09/21 11:19:06;;;;;;;3.28;0.82;;;32.10;53.10;;;;;;4968953;28;20479;-63
2022/09/21 11:21:40;;;;;;;3.53;0.80;;;32.10;53.40;;;;;;4966044;28;20097;-63
2022/09/21 11:24:17;;;;;;;3.95;0.90;;;32.40;51.50;;;;;;4968877;28;20509;-63
2022/09/21 11:26:51;;;;;;;2.83;0.80;;;31.30;52.40;;;;;;4952164;28;20042;-63
2022/09/21 11:29:24;;;;;;;3.22;1.02;;;32.10;53.30;;;;;;4952323;28;20130;-63
2022/09/21 11:32:06;;;;;;;5.07;1.13;;;32.20;53.60;;;;;;4971530;28;20050;-63
2022/09/21 11:34:57;;;;;;;4.97;1.00;;;32.40;53.30;;;;;;4969926;28;20054;-63
2022/09/21 11:37:38;;;;;;;2.97;0.80;;;32.60;52.70;;;;;;4970951;28;20050;-62
2022/09/21 11:40:19;;;;;;;4.47;0.90;;;32.30;53.50;;;;;;4968810;28;20047;-63
2022/09/21 11:42:55;;;;;;;4.30;1.10;;;32.50;53.20;;;;;;4950621;28;20507;-62
2022/09/21 11:45:36;;;;;;;5.93;1.33;;;31.80;52.70;;;;;;4952968;28;20640;-63
2022/09/21 11:48:15;;;;;;;4.95;1.15;;;31.70;52.60;;;;;;4969930;28;20054;-63
2022/09/21 11:50:55;;;;;;;6.95;1.23;;;31.50;53.50;;;;;;4969239;28;20048;-64
2022/09/21 11:53:45;;;;;;;1.85;0.60;;;31.30;53.10;;;;;;4967877;28;20051;-63
2022/09/21 11:56:30;;;;;;;4.32;1.15;;;31.40;53.00;;;;;;4950686;28;20047;-64
2022/09/21 11:59:09;;;;;;;4.85;1.55;;;31.60;52.60;;;;;;4954557;28;20054;-62
2022/09/21 12:01:54;;;;;;;3.60;0.70;;;31.30;53.10;;;;;;4968322;28;20046;-62
2022/09/21 12:04:40;;;;;;;2.38;0.60;;;31.80;51.80;;;;;;4966279;28;20050;-62
2022/09/21 12:07:20;;;;;;;2.65;0.90;;;31.90;52.60;;;;;;4948262;28;20094;-64
2022/09/21 12:10:00;;;;;;;3.42;1.08;;;32.10;51.30;;;;;;4969167;28;20051;-64
2022/09/21 12:12:33;;;;;;;3.22;1.00;;;32.10;51.70;;;;;;4970407;28;20106;-62
2022/09/21 12:15:07;;;;;;;3.50;1.00;;;31.50;52.10;;;;;;4971813;28;20142;-63
2022/09/21 12:17:43;;;;;;;4.53;1.20;;;31.40;52.30;;;;;;4951869;28;20465;-64
2022/09/21 12:20:17;;;;;;;4.18;0.88;;;31.40;52.30;;;;;;4951918;28;20054;-64
2022/09/21 12:22:47;;;;;;;4.35;1.23;;;31.70;52.70;;;;;;4970605;28;20050;-63
2022/09/21 12:25:15;;;;;;;;;;;31.60;52.40;;;;;;4972905;28;20047;-63
2022/09/21 12:27:47;;;;;;;2.65;0.80;;;31.20;52.30;;;;;;4953721;28;20429;-63
2022/09/21 12:30:17;;;;;;;3.63;0.85;;;31.40;52.70;;;;;;4968225;28;20046;-62
2022/09/21 12:32:52;;;;;;;7.82;1.40;;;30.90;53.10;;;;;;4949890;28;20050;-62
2022/09/21 12:35:27;;;;;;;6.07;0.90;;;31.10;52.80;;;;;;4966322;28;20126;-61
2022/09/21 12:38:00;;;;;;;3.97;0.80;;;31.00;52.80;;;;;;4967863;28;20047;-62
2022/09/21 12:40:36;;;;;;;4.22;1.00;;;31.60;53.10;;;;;;4951787;28;20066;-63
2022/09/21 12:43:13;;;;;;;2.38;0.80;;;31.60;52.90;;;;;;4949589;28;20063;-63
2022/09/21 12:45:43;;;;;;;3.25;0.75;;;31.70;52.20;;;;;;4968276;28;20055;-62
2022/09/21 12:48:20;;;;;;;2.45;0.63;;;32.10;51.80;;;;;;4952193;28;20074;-63
2022/09/21 12:50:53;;;;;;;2.95;0.70;;;32.20;51.10;;;;;;4965452;28;20051;-63
2022/09/21 12:53:24;;;;;;;3.25;0.90;;;32.20;51.40;;;;;;4963480;28;20066;-63
2022/09/21 12:56:00;;;;;;;2.60;0.70;;;31.60;51.70;;;;;;4964942;28;20414;-63
2022/09/21 12:58:48;;;;;;;3.22;0.95;;;31.70;51.70;;;;;;4967690;28;20479;-63
2022/09/21 13:01:31;;;;;;;4.57;0.90;;;31.70;52.30;;;;;;4951256;28;20143;-65
2022/09/21 13:04:21;;;;;;;1.95;0.82;;;31.70;51.60;;;;;;4950102;28;20054;-64
2022/09/21 13:07:15;;;;;;;2.63;0.60;;;31.00;51.50;;;;;;4948700;28;20054;-64
2022/09/21 13:09:45;;;;;;;6.90;0.80;;;30.20;52.40;;;;;;4965936;28;20062;-65
2022/09/21 13:12:17;;;;;;;3.97;0.95;;;30.20;52.40;;;;;;4949035;28;20051;-63
2022/09/21 13:14:47;;;;;;;3.55;1.23;;;30.40;51.80;;;;;;4965179;28;20053;-64
2022/09/21 13:17:21;;;;;;;2.75;0.90;;;30.60;52.20;;;;;;4968842;28;20055;-65
2022/09/21 13:19:58;;;;;;;2.13;0.88;;;31.30;51.20;;;;;;4965136;28;20404;-64
2022/09/21 13:22:32;;;;;;;4.78;0.95;;;31.90;50.70;;;;;;4948337;28;20106;-64